sensor_id;sensor_type;location;lat;lon;timestamp;pressure;altitude;pressure_sealevel;temperature;humidity
35419;BME280;21525;41.240;16.500;2023-09-19T00:00:31;101140.09;;;32.17;43.27
35419;BME280;21525;41.240;16.500;2023-09-19T00:02:59;101138.59;;;32.14;43.48
35419;BME280;21525;41.240;16.500;2023-09-19T00:05:26;101133.22;;;31.77;44.22
35419;BME280;21525;41.240;16.500;2023-09-19T00:07:54;101139.09;;;31.34;45.26
35419;BME280;21525;41.240;16.500;2023-09-19T00:10:21;101140.72;;;31.73;44.65
35419;BME280;21525;41.240;16.500;2023-09-19T00:12:51;101149.13;;;31.98;44.24
35419;BME280;21525;41.240;16.500;2023-09-19T00:15:18;101159.59;;;32.01;43.76
35419;BME280;21525;41.240;16.500;2023-09-19T00:17:44;101164.31;;;32.17;43.50
35419;BME280;21525;41.240;16.500;2023-09-19T00:20:11;101162.97;;;32.40;43.50
35419;BME280;21525;41.240;16.500;2023-09-19T00:22:41;101175.00;;;32.46;43.67
35419;BME280;21525;41.240;16.500;2023-09-19T00:25:11;101190.28;;;32.45;43.59
35419;BME280;21525;41.240;16.500;2023-09-19T00:27:38;101191.16;;;32.63;43.48
35419;BME280;21525;41.240;16.500;2023-09-19T00:30:08;101188.19;;;32.39;43.99
35419;BME280;21525;41.240;16.500;2023-09-19T00:32:40;101191.88;;;32.38;45.04
35419;BME280;21525;41.240;16.500;2023-09-19T00:35:07;101197.75;;;32.51;45.04
35419;BME280;21525;41.240;16.500;2023-09-19T00:37:36;101195.72;;;32.35;45.68
35419;BME280;21525;41.240;16.500;2023-09-19T00:40:03;101203.06;;;32.06;45.98
35419;BME280;21525;41.240;16.500;2023-09-19T00:42:31;101209.00;;;32.10;45.26
35419;BME280;21525;41.240;16.500;2023-09-19T00:44:59;101203.81;;;31.89;45.83
35419;BME280;21525;41.240;16.500;2023-09-19T00:47:29;101202.03;;;31.70;45.92
35419;BME280;21525;41.240;16.500;2023-09-19T00:49:55;101197.69;;;31.96;45.19
35419;BME280;21525;41.240;16.500;2023-09-19T00:52:22;101201.34;;;32.05;44.24
35419;BME280;21525;41.240;16.500;2023-09-19T00:54:49;101195.38;;;31.74;44.55
35419;BME280;21525;41.240;16.500;2023-09-19T00:57:15;101198.84;;;31.84;43.99
35419;BME280;21525;41.240;16.500;2023-09-19T00:59:44;101195.88;;;32.34;43.22
35419;BME280;21525;41.240;16.500;2023-09-19T01:02:12;101201.75;;;32.10;43.34
35419;BME280;21525;41.240;16.500;2023-09-19T01:04:40;101193.91;;;32.26;43.00
35419;BME280;21525;41.240;16.500;2023-09-19T01:07:07;101199.66;;;32.04;43.01
35419;BME280;21525;41.240;16.500;2023-09-19T01:09:34;101186.44;;;31.64;43.34
35419;BME280;21525;41.240;16.500;2023-09-19T01:12:02;101197.97;;;31.93;42.87
35419;BME280;21525;41.240;16.500;2023-09-19T01:18:03;101209.53;;;32.13;42.57
35419;BME280;21525;41.240;16.500;2023-09-19T01:29:08;101216.34;;;32.08;44.46
35419;BME280;21525;41.240;16.500;2023-09-19T01:31:40;101221.50;;;31.91;45.19
35419;BME280;21525;41.240;16.500;2023-09-19T01:34:08;101212.38;;;32.12;45.15
35419;BME280;21525;41.240;16.500;2023-09-19T01:36:36;101215.31;;;31.81;46.54
35419;BME280;21525;41.240;16.500;2023-09-19T01:39:11;101212.31;;;31.65;46.98
35419;BME280;21525;41.240;16.500;2023-09-19T01:41:59;101212.47;;;31.83;47.34
35419;BME280;21525;41.240;16.500;2023-09-19T01:49:57;101204.78;;;31.97;48.69
35419;BME280;21525;41.240;16.500;2023-09-19T01:52:28;101203.91;;;32.06;52.96
35419;BME280;21525;41.240;16.500;2023-09-19T01:55:05;101197.25;;;32.01;50.83
35419;BME280;21525;41.240;16.500;2023-09-19T01:57:37;101184.88;;;31.61;53.72
35419;BME280;21525;41.240;16.500;2023-09-19T02:00:07;101180.81;;;31.28;54.49
35419;BME280;21525;41.240;16.500;2023-09-19T02:02:45;101184.50;;;31.27;55.57
35419;BME280;21525;41.240;16.500;2023-09-19T02:05:13;101181.53;;;31.11;56.83
35419;BME280;21525;41.240;16.500;2023-09-19T02:07:39;101176.56;;;31.06;55.85
35419;BME280;21525;41.240;16.500;2023-09-19T02:10:06;101179.97;;;31.28;53.96
35419;BME280;21525;41.240;16.500;2023-09-19T02:12:33;101181.53;;;31.30;54.06
35419;BME280;21525;41.240;16.500;2023-09-19T02:15:03;101174.16;;;31.32;55.01
35419;BME280;21525;41.240;16.500;2023-09-19T02:17:29;101173.03;;;31.25;54.45
35419;BME280;21525;41.240;16.500;2023-09-19T02:19:57;101173.88;;;31.35;52.87
35419;BME280;21525;41.240;16.500;2023-09-19T02:22:24;101176.72;;;31.24;53.21
35419;BME280;21525;41.240;16.500;2023-09-19T02:24:50;101176.28;;;31.48;52.03
35419;BME280;21525;41.240;16.500;2023-09-19T02:27:16;101173.03;;;31.25;51.79
35419;BME280;21525;41.240;16.500;2023-09-19T02:29:45;101165.53;;;31.29;52.37
35419;BME280;21525;41.240;16.500;2023-09-19T02:32:10;101169.78;;;31.31;53.77
35419;BME280;21525;41.240;16.500;2023-09-19T02:34:36;101175.72;;;31.35;51.57
35419;BME280;21525;41.240;16.500;2023-09-19T02:37:07;101173.47;;;31.40;52.29
35419;BME280;21525;41.240;16.500;2023-09-19T02:39:34;101175.16;;;31.41;49.87
35419;BME280;21525;41.240;16.500;2023-09-19T02:42:01;101172.47;;;31.31;48.57
35419;BME280;21525;41.240;16.500;2023-09-19T02:44:27;101174.06;;;31.15;50.46
35419;BME280;21525;41.240;16.500;2023-09-19T02:46:53;101175.59;;;31.36;49.08
35419;BME280;21525;41.240;16.500;2023-09-19T02:49:18;101177.72;;;31.23;49.37
35419;BME280;21525;41.240;16.500;2023-09-19T02:51:44;101173.78;;;31.18;48.99
35419;BME280;21525;41.240;16.500;2023-09-19T02:54:11;101175.19;;;31.12;48.29
35419;BME280;21525;41.240;16.500;2023-09-19T02:56:37;101168.06;;;30.92;48.70
35419;BME280;21525;41.240;16.500;2023-09-19T02:59:03;101181.13;;;31.16;48.28
35419;BME280;21525;41.240;16.500;2023-09-19T03:01:29;101177.72;;;31.43;47.65
35419;BME280;21525;41.240;16.500;2023-09-19T03:03:55;101167.81;;;31.43;47.37
35419;BME280;21525;41.240;16.500;2023-09-19T03:06:21;101173.34;;;31.13;48.09
35419;BME280;21525;41.240;16.500;2023-09-19T03:08:47;101175.44;;;30.99;48.70
35419;BME280;21525;41.240;16.500;2023-09-19T03:11:15;101171.38;;;31.15;47.34
35419;BME280;21525;41.240;16.500;2023-09-19T03:13:45;101162.56;;;31.32;46.32
35419;BME280;21525;41.240;16.500;2023-09-19T03:16:12;101151.44;;;31.17;46.64
35419;BME280;21525;41.240;16.500;2023-09-19T03:18:40;101150.56;;;31.26;46.28
35419;BME280;21525;41.240;16.500;2023-09-19T03:21:06;101163.00;;;31.08;46.17
35419;BME280;21525;41.240;16.500;2023-09-19T03:23:32;101157.03;;;30.95;47.12
35419;BME280;21525;41.240;16.500;2023-09-19T03:25:57;101156.19;;;30.94;47.23
35419;BME280;21525;41.240;16.500;2023-09-19T03:28:24;101156.13;;;30.46;46.74
35419;BME280;21525;41.240;16.500;2023-09-19T03:31:02;101158.66;;;30.48;46.55
35419;BME280;21525;41.240;16.500;2023-09-19T03:33:30;101158.22;;;30.02;47.55
35419;BME280;21525;41.240;16.500;2023-09-19T03:36:01;101157.91;;;30.36;46.83
35419;BME280;21525;41.240;16.500;2023-09-19T03:38:30;101162.56;;;30.34;47.08
35419;BME280;21525;41.240;16.500;2023-09-19T03:40:57;101155.63;;;30.71;46.20
35419;BME280;21525;41.240;16.500;2023-09-19T03:43:22;101168.06;;;30.72;46.64
35419;BME280;21525;41.240;16.500;2023-09-19T03:45:48;101164.13;;;30.96;45.50
35419;BME280;21525;41.240;16.500;2023-09-19T03:48:14;101168.91;;;30.92;45.32
35419;BME280;21525;41.240;16.500;2023-09-19T03:50:40;101166.38;;;30.81;44.69
35419;BME280;21525;41.240;16.500;2023-09-19T03:53:06;101155.63;;;31.00;43.99
35419;BME280;21525;41.240;16.500;2023-09-19T03:55:33;101155.50;;;31.21;43.75
35419;BME280;21525;41.240;16.500;2023-09-19T03:58:05;101161.47;;;31.15;43.95
35419;BME280;21525;41.240;16.500;2023-09-19T04:00:31;101160.31;;;31.08;44.11
35419;BME280;21525;41.240;16.500;2023-09-19T04:02:58;101159.16;;;30.91;44.90
35419;BME280;21525;41.240;16.500;2023-09-19T04:05:24;101158.59;;;30.88;45.51
35419;BME280;21525;41.240;16.500;2023-09-19T04:07:50;101165.53;;;30.21;45.27
35419;BME280;21525;41.240;16.500;2023-09-19T04:10:16;101162.03;;;30.40;45.06
35419;BME280;21525;41.240;16.500;2023-09-19T04:12:53;101164.69;;;30.80;44.70
35419;BME280;21525;41.240;16.500;2023-09-19T04:15:19;101153.06;;;30.60;44.90
35419;BME280;21525;41.240;16.500;2023-09-19T04:17:45;101160.38;;;30.58;44.92
35419;BME280;21525;41.240;16.500;2023-09-19T04:20:11;101159.41;;;30.59;45.13
35419;BME280;21525;41.240;16.500;2023-09-19T04:22:39;101155.78;;;30.30;45.59
35419;BME280;21525;41.240;16.500;2023-09-19T04:25:06;101154.69;;;30.02;46.63
35419;BME280;21525;41.240;16.500;2023-09-19T04:27:32;101164.63;;;29.90;46.78
35419;BME280;21525;41.240;16.500;2023-09-19T04:29:58;101157.69;;;30.08;46.22
35419;BME280;21525;41.240;16.500;2023-09-19T04:32:28;101156.84;;;30.08;45.77
35419;BME280;21525;41.240;16.500;2023-09-19T04:34:54;101159.94;;;29.52;47.10
35419;BME280;21525;41.240;16.500;2023-09-19T04:37:20;101154.91;;;29.27;47.99
35419;BME280;21525;41.240;16.500;2023-09-19T04:39:47;101148.19;;;29.32;47.92
35419;BME280;21525;41.240;16.500;2023-09-19T04:42:13;101154.91;;;29.06;48.90
35419;BME280;21525;41.240;16.500;2023-09-19T04:44:41;101147.00;;;29.67;46.67
35419;BME280;21525;41.240;16.500;2023-09-19T04:47:08;101147.44;;;29.41;46.90
35419;BME280;21525;41.240;16.500;2023-09-19T04:49:33;101150.91;;;29.53;46.38
35419;BME280;21525;41.240;16.500;2023-09-19T04:52:00;101151.69;;;29.44;47.40
35419;BME280;21525;41.240;16.500;2023-09-19T04:54:26;101145.00;;;29.59;47.81
35419;BME280;21525;41.240;16.500;2023-09-19T04:56:52;101144.72;;;29.93;46.56
35419;BME280;21525;41.240;16.500;2023-09-19T04:59:18;101144.34;;;29.97;45.43
35419;BME280;21525;41.240;16.500;2023-09-19T05:01:44;101146.28;;;29.65;45.67
35419;BME280;21525;41.240;16.500;2023-09-19T05:04:10;101147.88;;;29.67;44.97
35419;BME280;21525;41.240;16.500;2023-09-19T05:06:35;101139.91;;;29.56;44.92
35419;BME280;21525;41.240;16.500;2023-09-19T05:09:01;101131.91;;;29.96;43.65
35419;BME280;21525;41.240;16.500;2023-09-19T05:11:30;101139.63;;;30.11;43.48
35419;BME280;21525;41.240;16.500;2023-09-19T05:13:56;101139.63;;;30.11;42.82
35419;BME280;21525;41.240;16.500;2023-09-19T05:16:21;101139.09;;;30.76;41.01
35419;BME280;21525;41.240;16.500;2023-09-19T05:18:47;101146.88;;;31.47;39.51
35419;BME280;21525;41.240;16.500;2023-09-19T05:21:15;101142.31;;;32.03;38.58
35419;BME280;21525;41.240;16.500;2023-09-19T05:23:40;101139.53;;;32.23;39.99
35419;BME280;21525;41.240;16.500;2023-09-19T05:26:06;101146.75;;;32.22;39.50
35419;BME280;21525;41.240;16.500;2023-09-19T05:28:32;101139.78;;;32.29;39.51
35419;BME280;21525;41.240;16.500;2023-09-19T05:31:03;101139.88;;;32.83;38.26
35419;BME280;21525;41.240;16.500;2023-09-19T05:33:29;101134.81;;;33.23;37.07
35419;BME280;21525;41.240;16.500;2023-09-19T05:35:56;101128.75;;;33.39;35.92
35419;BME280;21525;41.240;16.500;2023-09-19T05:38:22;101134.38;;;34.06;33.06
35419;BME280;21525;41.240;16.500;2023-09-19T05:40:48;101134.41;;;34.14;31.52
35419;BME280;21525;41.240;16.500;2023-09-19T05:43:14;101137.16;;;34.80;32.21
35419;BME280;21525;41.240;16.500;2023-09-19T05:45:40;101139.38;;;35.01;32.74
35419;BME280;21525;41.240;16.500;2023-09-19T05:48:11;101142.91;;;35.01;33.71
35419;BME280;21525;41.240;16.500;2023-09-19T05:50:39;101150.16;;;35.58;32.50
35419;BME280;21525;41.240;16.500;2023-09-19T05:53:05;101142.44;;;35.30;33.21
35419;BME280;21525;41.240;16.500;2023-09-19T05:55:31;101145.59;;;35.66;31.17
35419;BME280;21525;41.240;16.500;2023-09-19T05:57:57;101136.38;;;36.00;31.79
35419;BME280;21525;41.240;16.500;2023-09-19T06:00:24;101152.78;;;36.68;30.42
35419;BME280;21525;41.240;16.500;2023-09-19T06:02:53;101140.88;;;37.23;30.00
35419;BME280;21525;41.240;16.500;2023-09-19T06:05:20;101137.19;;;37.16;28.03
35419;BME280;21525;41.240;16.500;2023-09-19T06:07:47;101131.50;;;37.93;29.38
35419;BME280;21525;41.240;16.500;2023-09-19T06:10:13;101131.84;;;38.05;28.68
35419;BME280;21525;41.240;16.500;2023-09-19T06:12:43;101125.31;;;38.50;28.71
35419;BME280;21525;41.240;16.500;2023-09-19T06:15:16;101123.16;;;38.60;27.68
35419;BME280;21525;41.240;16.500;2023-09-19T06:20:14;101119.84;;;38.86;28.16
35419;BME280;21525;41.240;16.500;2023-09-19T06:22:44;101124.38;;;40.32;26.52
35419;BME280;21525;41.240;16.500;2023-09-19T06:25:11;101132.00;;;40.43;25.65
35419;BME280;21525;41.240;16.500;2023-09-19T06:27:38;101129.94;;;40.58;26.11
35419;BME280;21525;41.240;16.500;2023-09-19T06:30:08;101128.53;;;40.75;25.70
35419;BME280;21525;41.240;16.500;2023-09-19T06:32:35;101118.22;;;41.63;24.95
35419;BME280;21525;41.240;16.500;2023-09-19T06:35:00;101122.31;;;41.92;24.56
35419;BME280;21525;41.240;16.500;2023-09-19T06:37:27;101119.78;;;41.97;24.48
35419;BME280;21525;41.240;16.500;2023-09-19T06:39:53;101118.94;;;42.03;24.31
35419;BME280;21525;41.240;16.500;2023-09-19T06:42:19;101120.63;;;41.98;24.44
35419;BME280;21525;41.240;16.500;2023-09-19T06:44:45;101126.09;;;42.80;23.58
35419;BME280;21525;41.240;16.500;2023-09-19T06:47:11;101124.88;;;42.45;23.83
35419;BME280;21525;41.240;16.500;2023-09-19T06:49:36;101121.59;;;43.42;22.94
35419;BME280;21525;41.240;16.500;2023-09-19T06:52:02;101127.13;;;43.36;22.90
35419;BME280;21525;41.240;16.500;2023-09-19T06:54:29;101121.97;;;44.19;22.62
35419;BME280;21525;41.240;16.500;2023-09-19T06:56:59;101122.16;;;44.66;21.69
35419;BME280;21525;41.240;16.500;2023-09-19T06:59:25;101123.91;;;44.90;21.33
35419;BME280;21525;41.240;16.500;2023-09-19T07:01:51;101133.81;;;45.03;20.87
35419;BME280;21525;41.240;16.500;2023-09-19T07:04:17;101128.38;;;45.38;20.56
35419;BME280;21525;41.240;16.500;2023-09-19T07:06:49;101128.72;;;45.18;20.44
35419;BME280;21525;41.240;16.500;2023-09-19T07:09:18;101121.78;;;44.62;20.76
35419;BME280;21525;41.240;16.500;2023-09-19T07:11:45;101123.22;;;45.18;20.32
35419;BME280;21525;41.240;16.500;2023-09-19T07:14:11;101132.75;;;44.62;20.90
35419;BME280;21525;41.240;16.500;2023-09-19T07:16:38;101134.88;;;44.18;20.88
35419;BME280;21525;41.240;16.500;2023-09-19T07:19:05;101137.53;;;44.07;21.43
35419;BME280;21525;41.240;16.500;2023-09-19T07:21:31;101140.47;;;43.50;22.03
35419;BME280;21525;41.240;16.500;2023-09-19T07:24:01;101135.47;;;43.66;21.68
35419;BME280;21525;41.240;16.500;2023-09-19T07:26:28;101131.31;;;43.56;21.44
35419;BME280;21525;41.240;16.500;2023-09-19T07:28:54;101125.75;;;44.06;21.02
35419;BME280;21525;41.240;16.500;2023-09-19T07:31:21;101132.22;;;44.23;20.94
35419;BME280;21525;41.240;16.500;2023-09-19T07:33:48;101122.38;;;44.04;21.20
35419;BME280;21525;41.240;16.500;2023-09-19T07:36:14;101122.09;;;44.24;20.91
35419;BME280;21525;41.240;16.500;2023-09-19T07:38:40;101126.69;;;43.57;21.10
35419;BME280;21525;41.240;16.500;2023-09-19T07:41:07;101133.44;;;43.54;21.25
35419;BME280;21525;41.240;16.500;2023-09-19T07:43:35;101136.03;;;42.43;22.98
35419;BME280;21525;41.240;16.500;2023-09-19T07:46:05;101139.88;;;41.32;24.14
35419;BME280;21525;41.240;16.500;2023-09-19T07:48:33;101140.53;;;40.26;24.65
35419;BME280;21525;41.240;16.500;2023-09-19T07:51:04;101133.69;;;40.44;24.55
35419;BME280;21525;41.240;16.500;2023-09-19T07:53:30;101136.09;;;41.46;24.22
35419;BME280;21525;41.240;16.500;2023-09-19T07:56:03;101137.56;;;41.28;23.06
35419;BME280;21525;41.240;16.500;2023-09-19T07:58:29;101148.03;;;40.18;24.40
35419;BME280;21525;41.240;16.500;2023-09-19T08:00:55;101143.44;;;39.84;25.13
35419;BME280;21525;41.240;16.500;2023-09-19T08:03:20;101145.31;;;39.49;25.11
35419;BME280;21525;41.240;16.500;2023-09-19T08:05:46;101145.00;;;39.93;23.79
35419;BME280;21525;41.240;16.500;2023-09-19T08:08:14;101148.16;;;39.69;25.34
35419;BME280;21525;41.240;16.500;2023-09-19T08:10:40;101148.00;;;39.77;25.38
35419;BME280;21525;41.240;16.500;2023-09-19T08:13:08;101158.78;;;38.50;25.51
35419;BME280;21525;41.240;16.500;2023-09-19T08:15:43;101152.69;;;39.27;24.50
35419;BME280;21525;41.240;16.500;2023-09-19T08:18:09;101151.06;;;38.90;25.78
35419;BME280;21525;41.240;16.500;2023-09-19T08:20:38;101154.88;;;38.74;26.84
35419;BME280;21525;41.240;16.500;2023-09-19T08:23:04;101164.28;;;39.98;26.46
35419;BME280;21525;41.240;16.500;2023-09-19T08:25:29;101177.88;;;38.93;26.36
35419;BME280;21525;41.240;16.500;2023-09-19T08:27:55;101176.31;;;39.48;26.24
35419;BME280;21525;41.240;16.500;2023-09-19T08:30:25;101164.63;;;40.23;25.51
35419;BME280;21525;41.240;16.500;2023-09-19T08:32:59;101171.19;;;39.94;24.74
35419;BME280;21525;41.240;16.500;2023-09-19T08:35:26;101179.16;;;40.37;24.62
35419;BME280;21525;41.240;16.500;2023-09-19T08:37:52;101177.22;;;39.12;25.48
35419;BME280;21525;41.240;16.500;2023-09-19T08:40:18;101173.78;;;38.61;25.92
35419;BME280;21525;41.240;16.500;2023-09-19T08:45:14;101185.84;;;38.94;27.29
35419;BME280;21525;41.240;16.500;2023-09-19T08:47:46;101186.66;;;37.93;29.89
35419;BME280;21525;41.240;16.500;2023-09-19T08:50:28;101180.84;;;38.26;29.98
35419;BME280;21525;41.240;16.500;2023-09-19T08:53:00;101180.69;;;38.49;27.78
35419;BME280;21525;41.240;16.500;2023-09-19T08:55:27;101175.53;;;39.88;27.22
35419;BME280;21525;41.240;16.500;2023-09-19T08:58:20;101168.88;;;39.42;27.11
35419;BME280;21525;41.240;16.500;2023-09-19T09:00:48;101164.09;;;38.22;27.40
35419;BME280;21525;41.240;16.500;2023-09-19T09:03:16;101160.88;;;38.70;26.97
35419;BME280;21525;41.240;16.500;2023-09-19T09:05:46;101162.78;;;38.54;26.19
35419;BME280;21525;41.240;16.500;2023-09-19T09:08:13;101157.53;;;38.31;25.83
35419;BME280;21525;41.240;16.500;2023-09-19T09:10:40;101163.28;;;37.17;27.37
35419;BME280;21525;41.240;16.500;2023-09-19T09:13:06;101170.19;;;37.95;26.74
35419;BME280;21525;41.240;16.500;2023-09-19T09:15:35;101158.94;;;37.83;27.36
35419;BME280;21525;41.240;16.500;2023-09-19T09:18:02;101158.13;;;38.48;26.95
35419;BME280;21525;41.240;16.500;2023-09-19T09:20:28;101162.00;;;38.10;26.65
35419;BME280;21525;41.240;16.500;2023-09-19T09:22:55;101156.94;;;38.36;26.13
35419;BME280;21525;41.240;16.500;2023-09-19T09:25:47;101159.25;;;38.39;26.04
35419;BME280;21525;41.240;16.500;2023-09-19T09:28:19;101156.22;;;37.83;25.82
35419;BME280;21525;41.240;16.500;2023-09-19T09:30:45;101145.66;;;38.54;25.59
35419;BME280;21525;41.240;16.500;2023-09-19T09:33:13;101144.19;;;39.15;25.18
35419;BME280;21525;41.240;16.500;2023-09-19T09:35:58;101140.78;;;39.35;24.79
35419;BME280;21525;41.240;16.500;2023-09-19T09:38:47;101133.31;;;40.06;24.10
35419;BME280;21525;41.240;16.500;2023-09-19T09:41:15;101135.28;;;39.49;24.09
35419;BME280;21525;41.240;16.500;2023-09-19T09:43:53;101138.91;;;38.64;24.73
35419;BME280;21525;41.240;16.500;2023-09-19T09:46:21;101139.22;;;38.40;25.30
35419;BME280;21525;41.240;16.500;2023-09-19T09:48:58;101136.59;;;38.68;24.83
35419;BME280;21525;41.240;16.500;2023-09-19T09:51:59;101145.09;;;38.80;24.72
35419;BME280;21525;41.240;16.500;2023-09-19T09:54:27;101141.66;;;38.35;25.88
35419;BME280;21525;41.240;16.500;2023-09-19T09:57:10;101137.59;;;37.95;26.12
35419;BME280;21525;41.240;16.500;2023-09-19T10:02:19;101147.50;;;37.21;26.92
35419;BME280;21525;41.240;16.500;2023-09-19T10:04:55;101139.22;;;38.40;25.85
35419;BME280;21525;41.240;16.500;2023-09-19T10:07:32;101139.91;;;38.27;25.82
35419;BME280;21525;41.240;16.500;2023-09-19T10:10:00;101136.03;;;37.11;27.17
35419;BME280;21525;41.240;16.500;2023-09-19T10:12:32;101136.66;;;37.73;26.55
35419;BME280;21525;41.240;16.500;2023-09-19T10:15:02;101143.78;;;36.99;26.60
35419;BME280;21525;41.240;16.500;2023-09-19T10:17:29;101135.19;;;37.10;26.81
35419;BME280;21525;41.240;16.500;2023-09-19T10:19:56;101127.44;;;37.45;27.11
35419;BME280;21525;41.240;16.500;2023-09-19T10:22:24;101126.72;;;37.95;26.64
35419;BME280;21525;41.240;16.500;2023-09-19T10:24:53;101129.91;;;38.64;27.10
35419;BME280;21525;41.240;16.500;2023-09-19T10:27:21;101129.66;;;38.44;26.83
35419;BME280;21525;41.240;16.500;2023-09-19T10:29:51;101122.44;;;38.37;26.61
35419;BME280;21525;41.240;16.500;2023-09-19T10:32:22;101128.59;;;37.65;27.54
35419;BME280;21525;41.240;16.500;2023-09-19T10:34:49;101125.75;;;38.03;27.71
35419;BME280;21525;41.240;16.500;2023-09-19T10:37:16;101123.44;;;37.55;26.88
35419;BME280;21525;41.240;16.500;2023-09-19T10:39:46;101131.91;;;37.38;27.51
35419;BME280;21525;41.240;16.500;2023-09-19T10:42:18;101125.31;;;37.70;27.12
35419;BME280;21525;41.240;16.500;2023-09-19T10:44:46;101122.72;;;37.91;27.78
35419;BME280;21525;41.240;16.500;2023-09-19T10:47:15;101129.16;;;37.75;27.89
35419;BME280;21525;41.240;16.500;2023-09-19T10:49:45;101125.22;;;38.22;27.25
35419;BME280;21525;41.240;16.500;2023-09-19T10:52:15;101135.53;;;38.48;26.35
35419;BME280;21525;41.240;16.500;2023-09-19T10:54:50;101131.25;;;37.21;27.85
35419;BME280;21525;41.240;16.500;2023-09-19T10:57:21;101152.91;;;36.44;27.71
35419;BME280;21525;41.240;16.500;2023-09-19T11:00:06;101139.66;;;36.18;27.17
35419;BME280;21525;41.240;16.500;2023-09-19T11:06:00;101137.44;;;36.30;28.36
35419;BME280;21525;41.240;16.500;2023-09-19T11:08:27;101134.59;;;36.54;28.36
35419;BME280;21525;41.240;16.500;2023-09-19T11:10:52;101117.28;;;36.32;28.59
35419;BME280;21525;41.240;16.500;2023-09-19T11:13:27;101130.66;;;36.57;28.68
35419;BME280;21525;41.240;16.500;2023-09-19T11:26:48;101116.09;;;35.88;27.73
35419;BME280;21525;41.240;16.500;2023-09-19T11:29:40;101116.63;;;36.53;27.75
35419;BME280;21525;41.240;16.500;2023-09-19T11:32:07;101111.97;;;36.93;27.42
35419;BME280;21525;41.240;16.500;2023-09-19T11:34:37;101113.16;;;37.65;27.15
35419;BME280;21525;41.240;16.500;2023-09-19T11:39:38;101097.22;;;37.48;26.82
35419;BME280;21525;41.240;16.500;2023-09-19T11:45:07;101087.22;;;37.78;26.36
35419;BME280;21525;41.240;16.500;2023-09-19T11:47:33;101086.28;;;38.00;26.50
35419;BME280;21525;41.240;16.500;2023-09-19T11:50:01;101083.38;;;37.57;26.19
35419;BME280;21525;41.240;16.500;2023-09-19T11:52:28;101084.31;;;37.64;26.18
35419;BME280;21525;41.240;16.500;2023-09-19T11:55:00;101077.13;;;37.57;26.37
35419;BME280;21525;41.240;16.500;2023-09-19T11:57:28;101074.69;;;36.95;26.33
35419;BME280;21525;41.240;16.500;2023-09-19T11:59:55;101071.03;;;37.25;25.81
35419;BME280;21525;41.240;16.500;2023-09-19T12:02:42;101068.03;;;37.35;25.50
35419;BME280;21525;41.240;16.500;2023-09-19T12:05:12;101066.44;;;37.41;25.56
35419;BME280;21525;41.240;16.500;2023-09-19T12:07:44;101068.22;;;37.33;25.28
35419;BME280;21525;41.240;16.500;2023-09-19T12:10:13;101063.41;;;36.83;26.40
35419;BME280;21525;41.240;16.500;2023-09-19T12:12:47;101071.56;;;36.83;25.89
35419;BME280;21525;41.240;16.500;2023-09-19T12:15:14;101066.25;;;36.90;26.64
35419;BME280;21525;41.240;16.500;2023-09-19T12:17:41;101071.06;;;36.34;27.74
35419;BME280;21525;41.240;16.500;2023-09-19T12:20:08;101064.06;;;36.40;28.62
35419;BME280;21525;41.240;16.500;2023-09-19T12:22:42;101068.53;;;37.16;27.76
35419;BME280;21525;41.240;16.500;2023-09-19T12:25:10;101070.28;;;37.09;27.96
35419;BME280;21525;41.240;16.500;2023-09-19T12:28:11;101070.41;;;36.78;27.62
35419;BME280;21525;41.240;16.500;2023-09-19T12:30:37;101075.94;;;36.39;27.48
35419;BME280;21525;41.240;16.500;2023-09-19T12:33:27;101074.88;;;36.71;31.62
35419;BME280;21525;41.240;16.500;2023-09-19T12:35:53;101075.34;;;36.97;27.80
35419;BME280;21525;41.240;16.500;2023-09-19T12:38:24;101078.13;;;36.66;27.41
35419;BME280;21525;41.240;16.500;2023-09-19T12:40:51;101070.97;;;36.42;28.79
35419;BME280;21525;41.240;16.500;2023-09-19T12:43:18;101073.91;;;35.54;31.89
35419;BME280;21525;41.240;16.500;2023-09-19T12:45:44;101072.16;;;36.71;32.30
35419;BME280;21525;41.240;16.500;2023-09-19T12:48:26;101068.19;;;36.36;31.90
35419;BME280;21525;41.240;16.500;2023-09-19T12:51:03;101074.44;;;36.36;31.45
35419;BME280;21525;41.240;16.500;2023-09-19T12:53:35;101076.88;;;35.76;32.71
35419;BME280;21525;41.240;16.500;2023-09-19T12:56:06;101078.44;;;36.40;32.32
35419;BME280;21525;41.240;16.500;2023-09-19T12:58:32;101078.75;;;35.83;31.08
35419;BME280;21525;41.240;16.500;2023-09-19T13:00:59;101075.38;;;35.73;28.46
35419;BME280;21525;41.240;16.500;2023-09-19T13:03:26;101083.06;;;36.00;30.16
35419;BME280;21525;41.240;16.500;2023-09-19T13:05:56;101076.84;;;36.99;29.83
35419;BME280;21525;41.240;16.500;2023-09-19T13:08:27;101083.69;;;36.11;29.32
35419;BME280;21525;41.240;16.500;2023-09-19T13:13:33;101080.97;;;37.10;28.73
35419;BME280;21525;41.240;16.500;2023-09-19T13:16:01;101082.22;;;37.37;28.78
35419;BME280;21525;41.240;16.500;2023-09-19T13:18:27;101081.06;;;36.33;30.29
35419;BME280;21525;41.240;16.500;2023-09-19T13:21:06;101075.75;;;36.86;30.20
35419;BME280;21525;41.240;16.500;2023-09-19T13:23:38;101080.03;;;36.57;29.91
35419;BME280;21525;41.240;16.500;2023-09-19T13:26:04;101069.31;;;36.87;30.79
35419;BME280;21525;41.240;16.500;2023-09-19T13:28:33;101075.69;;;36.17;30.60
35419;BME280;21525;41.240;16.500;2023-09-19T13:31:00;101074.72;;;36.41;30.50
35419;BME280;21525;41.240;16.500;2023-09-19T13:33:26;101082.75;;;35.95;29.88
35419;BME280;21525;41.240;16.500;2023-09-19T13:35:53;101082.84;;;35.63;30.32